sensor_id;sensor_type;location;lat;lon;timestamp;P1;durP1;ratioP1;P2;durP2;ratioP2
74892;SDS011;63446;56.272;43.922;2023-06-22T00:03:27;8.55;;;3.28;;
74892;SDS011;63446;56.272;43.922;2023-06-22T00:14:43;8.98;;;3.35;;
74892;SDS011;63446;56.272;43.922;2023-06-22T00:21:34;11.45;;;3.50;;
74892;SDS011;63446;56.272;43.922;2023-06-22T00:28:24;12.52;;;3.42;;
74892;SDS011;63446;56.272;43.922;2023-06-22T00:35:14;9.63;;;3.17;;
74892;SDS011;63446;56.272;43.922;2023-06-22T00:42:06;11.48;;;3.53;;
74892;SDS011;63446;56.272;43.922;2023-06-22T00:49:02;10.95;;;3.30;;
74892;SDS011;63446;56.272;43.922;2023-06-22T00:55:57;11.90;;;3.40;;
74892;SDS011;63446;56.272;43.922;2023-06-22T01:02:53;7.28;;;3.13;;
74892;SDS011;63446;56.272;43.922;2023-06-22T01:14:24;10.07;;;3.17;;
74892;SDS011;63446;56.272;43.922;2023-06-22T01:25:43;11.07;;;3.60;;
74892;SDS011;63446;56.272;43.922;2023-06-22T01:32:38;8.90;;;3.40;;
74892;SDS011;63446;56.272;43.922;2023-06-22T01:39:30;11.82;;;3.65;;
74892;SDS011;63446;56.272;43.922;2023-06-22T01:46:22;12.15;;;4.57;;
74892;SDS011;63446;56.272;43.922;2023-06-22T01:53:13;13.77;;;4.88;;
74892;SDS011;63446;56.272;43.922;2023-06-22T02:07:00;11.27;;;5.10;;
74892;SDS011;63446;56.272;43.922;2023-06-22T02:13:48;14.88;;;5.53;;
74892;SDS011;63446;56.272;43.922;2023-06-22T02:20:41;14.27;;;6.20;;
74892;SDS011;63446;56.272;43.922;2023-06-22T02:27:32;13.13;;;5.97;;
74892;SDS011;63446;56.272;43.922;2023-06-22T02:34:22;11.00;;;6.00;;
74892;SDS011;63446;56.272;43.922;2023-06-22T02:41:15;9.87;;;5.23;;
74892;SDS011;63446;56.272;43.922;2023-06-22T02:48:08;11.35;;;5.30;;
74892;SDS011;63446;56.272;43.922;2023-06-22T02:54:59;12.35;;;5.50;;
74892;SDS011;63446;56.272;43.922;2023-06-22T03:01:50;7.80;;;5.43;;
74892;SDS011;63446;56.272;43.922;2023-06-22T03:08:39;7.05;;;5.32;;
74892;SDS011;63446;56.272;43.922;2023-06-22T03:15:26;10.67;;;6.40;;
74892;SDS011;63446;56.272;43.922;2023-06-22T03:22:19;14.40;;;5.63;;
74892;SDS011;63446;56.272;43.922;2023-06-22T03:29:09;7.68;;;5.50;;
74892;SDS011;63446;56.272;43.922;2023-06-22T03:35:59;8.63;;;6.00;;
74892;SDS011;63446;56.272;43.922;2023-06-22T03:42:51;7.27;;;4.93;;
74892;SDS011;63446;56.272;43.922;2023-06-22T03:49:42;8.88;;;4.80;;
74892;SDS011;63446;56.272;43.922;2023-06-22T03:56:33;6.70;;;4.95;;
74892;SDS011;63446;56.272;43.922;2023-06-22T04:03:24;9.38;;;4.65;;
74892;SDS011;63446;56.272;43.922;2023-06-22T04:14:46;10.98;;;5.40;;
74892;SDS011;63446;56.272;43.922;2023-06-22T04:21:36;8.68;;;4.90;;
74892;SDS011;63446;56.272;43.922;2023-06-22T04:28:27;13.15;;;5.55;;
74892;SDS011;63446;56.272;43.922;2023-06-22T04:35:11;10.48;;;6.90;;
74892;SDS011;63446;56.272;43.922;2023-06-22T04:41:49;10.90;;;6.35;;
74892;SDS011;63446;56.272;43.922;2023-06-22T04:48:40;9.85;;;5.95;;
74892;SDS011;63446;56.272;43.922;2023-06-22T04:55:31;11.17;;;5.80;;
74892;SDS011;63446;56.272;43.922;2023-06-22T05:02:21;7.00;;;5.20;;
74892;SDS011;63446;56.272;43.922;2023-06-22T05:09:12;8.57;;;4.93;;
74892;SDS011;63446;56.272;43.922;2023-06-22T05:16:02;5.68;;;4.30;;
74892;SDS011;63446;56.272;43.922;2023-06-22T05:22:52;6.93;;;4.50;;
74892;SDS011;63446;56.272;43.922;2023-06-22T05:29:42;5.13;;;3.80;;
74892;SDS011;63446;56.272;43.922;2023-06-22T05:36:34;8.23;;;4.28;;
74892;SDS011;63446;56.272;43.922;2023-06-22T05:43:23;5.73;;;3.50;;
74892;SDS011;63446;56.272;43.922;2023-06-22T05:50:15;6.00;;;3.40;;
74892;SDS011;63446;56.272;43.922;2023-06-22T05:56:58;7.40;;;3.60;;
74892;SDS011;63446;56.272;43.922;2023-06-22T06:03:36;7.63;;;4.00;;
74892;SDS011;63446;56.272;43.922;2023-06-22T06:15:01;7.13;;;3.70;;
74892;SDS011;63446;56.272;43.922;2023-06-22T06:21:54;6.95;;;3.50;;
74892;SDS011;63446;56.272;43.922;2023-06-22T06:28:45;6.53;;;3.90;;
74892;SDS011;63446;56.272;43.922;2023-06-22T06:35:36;5.97;;;3.47;;
74892;SDS011;63446;56.272;43.922;2023-06-22T06:42:28;5.25;;;3.40;;
74892;SDS011;63446;56.272;43.922;2023-06-22T06:49:21;8.70;;;3.40;;
74892;SDS011;63446;56.272;43.922;2023-06-22T06:56:12;6.70;;;3.58;;
74892;SDS011;63446;56.272;43.922;2023-06-22T07:03:02;8.07;;;3.30;;
74892;SDS011;63446;56.272;43.922;2023-06-22T07:14:16;6.22;;;3.40;;
74892;SDS011;63446;56.272;43.922;2023-06-22T07:21:08;7.97;;;3.43;;
74892;SDS011;63446;56.272;43.922;2023-06-22T07:28:02;5.35;;;3.10;;
74892;SDS011;63446;56.272;43.922;2023-06-22T07:34:52;5.15;;;2.70;;
74892;SDS011;63446;56.272;43.922;2023-06-22T07:41:43;8.18;;;3.05;;
74892;SDS011;63446;56.272;43.922;2023-06-22T07:48:36;7.13;;;2.88;;
74892;SDS011;63446;56.272;43.922;2023-06-22T07:55:27;9.53;;;3.30;;
74892;SDS011;63446;56.272;43.922;2023-06-22T08:02:17;6.50;;;2.72;;
74892;SDS011;63446;56.272;43.922;2023-06-22T08:09:07;4.95;;;3.00;;
74892;SDS011;63446;56.272;43.922;2023-06-22T08:16:04;4.50;;;2.70;;
74892;SDS011;63446;56.272;43.922;2023-06-22T08:22:55;5.55;;;3.00;;
74892;SDS011;63446;56.272;43.922;2023-06-22T08:29:47;5.22;;;3.28;;
74892;SDS011;63446;56.272;43.922;2023-06-22T08:36:37;5.32;;;3.08;;
74892;SDS011;63446;56.272;43.922;2023-06-22T08:55:37;5.65;;;3.10;;
74892;SDS011;63446;56.272;43.922;2023-06-22T09:02:28;7.70;;;3.10;;
74892;SDS011;63446;56.272;43.922;2023-06-22T09:13:44;6.10;;;3.42;;
74892;SDS011;63446;56.272;43.922;2023-06-22T09:20:35;6.72;;;3.10;;
74892;SDS011;63446;56.272;43.922;2023-06-22T09:27:26;5.57;;;2.85;;
74892;SDS011;63446;56.272;43.922;2023-06-22T09:29:52;4.10;;;2.42;;
74892;SDS011;63446;56.272;43.922;2023-06-22T09:32:18;7.97;;;2.87;;
74892;SDS011;63446;56.272;43.922;2023-06-22T09:34:43;5.25;;;2.70;;
74892;SDS011;63446;56.272;43.922;2023-06-22T09:37:09;6.53;;;2.17;;
74892;SDS011;63446;56.272;43.922;2023-06-22T09:39:36;4.82;;;2.50;;
74892;SDS011;63446;56.272;43.922;2023-06-22T09:42:02;5.90;;;2.50;;
74892;SDS011;63446;56.272;43.922;2023-06-22T09:44:28;8.25;;;2.90;;
74892;SDS011;63446;56.272;43.922;2023-06-22T09:46:54;4.55;;;2.60;;
74892;SDS011;63446;56.272;43.922;2023-06-22T09:49:20;5.20;;;2.53;;
74892;SDS011;63446;56.272;43.922;2023-06-22T09:51:45;6.28;;;2.65;;
74892;SDS011;63446;56.272;43.922;2023-06-22T09:54:12;6.28;;;3.13;;
74892;SDS011;63446;56.272;43.922;2023-06-22T09:56:37;9.17;;;3.40;;
74892;SDS011;63446;56.272;43.922;2023-06-22T09:59:03;7.57;;;3.20;;
74892;SDS011;63446;56.272;43.922;2023-06-22T10:01:29;4.53;;;2.57;;
74892;SDS011;63446;56.272;43.922;2023-06-22T10:03:55;6.72;;;2.92;;
74892;SDS011;63446;56.272;43.922;2023-06-22T10:06:22;5.68;;;2.95;;
74892;SDS011;63446;56.272;43.922;2023-06-22T10:08:49;5.03;;;2.92;;
74892;SDS011;63446;56.272;43.922;2023-06-22T10:11:16;6.97;;;2.85;;
74892;SDS011;63446;56.272;43.922;2023-06-22T10:13:41;4.97;;;2.80;;
74892;SDS011;63446;56.272;43.922;2023-06-22T10:16:07;5.00;;;2.95;;
74892;SDS011;63446;56.272;43.922;2023-06-22T10:18:34;6.78;;;3.20;;
74892;SDS011;63446;56.272;43.922;2023-06-22T10:21:00;11.43;;;3.37;;
74892;SDS011;63446;56.272;43.922;2023-06-22T10:23:25;4.90;;;2.85;;
74892;SDS011;63446;56.272;43.922;2023-06-22T10:25:51;6.88;;;3.03;;
74892;SDS011;63446;56.272;43.922;2023-06-22T10:28:18;4.97;;;2.93;;
74892;SDS011;63446;56.272;43.922;2023-06-22T10:30:43;6.53;;;3.08;;
74892;SDS011;63446;56.272;43.922;2023-06-22T10:33:10;4.82;;;2.90;;
74892;SDS011;63446;56.272;43.922;2023-06-22T10:35:37;4.57;;;2.77;;
74892;SDS011;63446;56.272;43.922;2023-06-22T10:38:04;6.57;;;3.03;;
74892;SDS011;63446;56.272;43.922;2023-06-22T10:40:31;7.32;;;2.83;;
74892;SDS011;63446;56.272;43.922;2023-06-22T10:42:57;5.10;;;3.30;;
74892;SDS011;63446;56.272;43.922;2023-06-22T10:45:23;5.75;;;3.50;;
74892;SDS011;63446;56.272;43.922;2023-06-22T10:47:48;5.80;;;3.00;;
74892;SDS011;63446;56.272;43.922;2023-06-22T10:50:17;7.70;;;3.38;;
74892;SDS011;63446;56.272;43.922;2023-06-22T10:52:43;5.45;;;2.90;;
74892;SDS011;63446;56.272;43.922;2023-06-22T10:58:30;7.07;;;3.33;;
74892;SDS011;63446;56.272;43.922;2023-06-22T11:00:56;6.65;;;2.80;;
74892;SDS011;63446;56.272;43.922;2023-06-22T11:03:23;9.20;;;2.90;;
74892;SDS011;63446;56.272;43.922;2023-06-22T11:05:49;8.35;;;3.28;;
74892;SDS011;63446;56.272;43.922;2023-06-22T11:08:16;6.80;;;3.13;;
74892;SDS011;63446;56.272;43.922;2023-06-22T11:10:42;5.00;;;2.70;;
74892;SDS011;63446;56.272;43.922;2023-06-22T11:13:09;4.65;;;2.72;;
74892;SDS011;63446;56.272;43.922;2023-06-22T11:15:36;4.65;;;2.60;;
74892;SDS011;63446;56.272;43.922;2023-06-22T11:18:02;5.03;;;2.88;;
74892;SDS011;63446;56.272;43.922;2023-06-22T11:20:27;6.70;;;2.77;;
74892;SDS011;63446;56.272;43.922;2023-06-22T11:26:35;5.63;;;2.50;;
74892;SDS011;63446;56.272;43.922;2023-06-22T11:29:01;5.65;;;2.70;;
74892;SDS011;63446;56.272;43.922;2023-06-22T11:31:34;6.32;;;2.63;;
74892;SDS011;63446;56.272;43.922;2023-06-22T11:34:00;5.70;;;2.83;;
74892;SDS011;63446;56.272;43.922;2023-06-22T11:36:26;6.70;;;3.03;;
74892;SDS011;63446;56.272;43.922;2023-06-22T11:38:52;7.38;;;2.83;;
74892;SDS011;63446;56.272;43.922;2023-06-22T11:41:18;4.32;;;2.40;;
74892;SDS011;63446;56.272;43.922;2023-06-22T11:43:44;4.43;;;2.50;;
74892;SDS011;63446;56.272;43.922;2023-06-22T11:46:10;8.37;;;2.73;;
74892;SDS011;63446;56.272;43.922;2023-06-22T11:48:36;5.03;;;2.13;;
74892;SDS011;63446;56.272;43.922;2023-06-22T11:51:03;4.43;;;2.47;;
74892;SDS011;63446;56.272;43.922;2023-06-22T11:53:29;3.92;;;2.42;;
74892;SDS011;63446;56.272;43.922;2023-06-22T11:55:55;4.20;;;2.40;;
74892;SDS011;63446;56.272;43.922;2023-06-22T11:58:22;4.50;;;2.22;;
74892;SDS011;63446;56.272;43.922;2023-06-22T12:00:48;4.78;;;2.30;;
74892;SDS011;63446;56.272;43.922;2023-06-22T12:03:14;4.57;;;2.30;;
74892;SDS011;63446;56.272;43.922;2023-06-22T12:05:40;5.25;;;2.58;;
74892;SDS011;63446;56.272;43.922;2023-06-22T12:08:06;6.73;;;2.87;;
74892;SDS011;63446;56.272;43.922;2023-06-22T12:10:32;7.32;;;2.70;;
74892;SDS011;63446;56.272;43.922;2023-06-22T12:12:58;7.78;;;2.75;;
74892;SDS011;63446;56.272;43.922;2023-06-22T12:15:26;7.53;;;2.60;;
74892;SDS011;63446;56.272;43.922;2023-06-22T12:17:52;5.38;;;2.42;;
74892;SDS011;63446;56.272;43.922;2023-06-22T12:20:19;7.18;;;2.17;;
74892;SDS011;63446;56.272;43.922;2023-06-22T12:22:45;4.35;;;2.15;;
74892;SDS011;63446;56.272;43.922;2023-06-22T12:25:11;6.97;;;2.77;;
74892;SDS011;63446;56.272;43.922;2023-06-22T12:27:37;8.82;;;2.58;;
74892;SDS011;63446;56.272;43.922;2023-06-22T12:30:03;5.00;;;2.20;;
74892;SDS011;63446;56.272;43.922;2023-06-22T12:32:32;6.72;;;2.60;;
74892;SDS011;63446;56.272;43.922;2023-06-22T12:34:59;5.82;;;2.40;;
74892;SDS011;63446;56.272;43.922;2023-06-22T12:37:25;8.10;;;2.87;;
74892;SDS011;63446;56.272;43.922;2023-06-22T12:39:51;7.40;;;2.70;;
74892;SDS011;63446;56.272;43.922;2023-06-22T12:42:16;8.83;;;2.80;;
74892;SDS011;63446;56.272;43.922;2023-06-22T12:44:43;6.93;;;2.72;;
74892;SDS011;63446;56.272;43.922;2023-06-22T12:47:09;10.80;;;2.22;;
74892;SDS011;63446;56.272;43.922;2023-06-22T12:49:36;7.78;;;2.72;;
74892;SDS011;63446;56.272;43.922;2023-06-22T12:52:03;7.05;;;2.70;;
74892;SDS011;63446;56.272;43.922;2023-06-22T12:54:33;6.13;;;2.63;;
74892;SDS011;63446;56.272;43.922;2023-06-22T12:57:00;5.35;;;2.95;;
74892;SDS011;63446;56.272;43.922;2023-06-22T12:59:27;6.10;;;2.80;;
74892;SDS011;63446;56.272;43.922;2023-06-22T13:01:53;7.37;;;3.07;;
74892;SDS011;63446;56.272;43.922;2023-06-22T13:04:19;9.68;;;3.15;;
74892;SDS011;63446;56.272;43.922;2023-06-22T13:06:47;7.72;;;3.30;;
74892;SDS011;63446;56.272;43.922;2023-06-22T13:09:14;6.22;;;3.13;;
74892;SDS011;63446;56.272;43.922;2023-06-22T13:11:42;12.77;;;3.33;;
74892;SDS011;63446;56.272;43.922;2023-06-22T13:14:09;6.97;;;3.08;;
74892;SDS011;63446;56.272;43.922;2023-06-22T13:16:36;5.57;;;2.90;;
74892;SDS011;63446;56.272;43.922;2023-06-22T13:19:03;7.82;;;3.38;;
74892;SDS011;63446;56.272;43.922;2023-06-22T13:21:30;7.97;;;3.22;;
74892;SDS011;63446;56.272;43.922;2023-06-22T13:23:59;7.80;;;3.40;;
74892;SDS011;63446;56.272;43.922;2023-06-22T13:26:26;9.82;;;3.35;;
74892;SDS011;63446;56.272;43.922;2023-06-22T13:28:54;6.72;;;3.35;;
74892;SDS011;63446;56.272;43.922;2023-06-22T13:31:21;10.27;;;3.25;;
74892;SDS011;63446;56.272;43.922;2023-06-22T13:33:48;11.27;;;3.10;;
74892;SDS011;63446;56.272;43.922;2023-06-22T13:36:18;7.10;;;3.27;;
74892;SDS011;63446;56.272;43.922;2023-06-22T13:38:45;7.60;;;3.38;;
74892;SDS011;63446;56.272;43.922;2023-06-22T13:41:11;8.65;;;3.80;;
74892;SDS011;63446;56.272;43.922;2023-06-22T13:43:38;7.53;;;3.33;;
74892;SDS011;63446;56.272;43.922;2023-06-22T13:46:04;7.93;;;4.15;;
74892;SDS011;63446;56.272;43.922;2023-06-22T13:48:33;10.27;;;3.97;;
74892;SDS011;63446;56.272;43.922;2023-06-22T13:51:04;9.75;;;3.80;;
74892;SDS011;63446;56.272;43.922;2023-06-22T13:53:30;6.15;;;3.15;;
74892;SDS011;63446;56.272;43.922;2023-06-22T13:55:56;8.50;;;3.83;;
74892;SDS011;63446;56.272;43.922;2023-06-22T13:58:22;12.97;;;3.83;;
74892;SDS011;63446;56.272;43.922;2023-06-22T14:00:47;7.32;;;4.15;;
74892;SDS011;63446;56.272;43.922;2023-06-22T14:03:14;13.13;;;3.83;;
74892;SDS011;63446;56.272;43.922;2023-06-22T14:05:42;8.47;;;3.70;;
74892;SDS011;63446;56.272;43.922;2023-06-22T14:08:08;10.70;;;3.75;;
74892;SDS011;63446;56.272;43.922;2023-06-22T14:10:34;8.07;;;3.17;;
74892;SDS011;63446;56.272;43.922;2023-06-22T14:13:00;7.82;;;2.92;;
74892;SDS011;63446;56.272;43.922;2023-06-22T14:15:26;7.73;;;3.37;;
74892;SDS011;63446;56.272;43.922;2023-06-22T14:17:52;8.33;;;3.00;;
74892;SDS011;63446;56.272;43.922;2023-06-22T14:20:18;10.50;;;3.60;;
74892;SDS011;63446;56.272;43.922;2023-06-22T14:22:43;10.00;;;3.23;;
74892;SDS011;63446;56.272;43.922;2023-06-22T14:25:09;6.05;;;3.08;;
74892;SDS011;63446;56.272;43.922;2023-06-22T14:27:36;8.07;;;3.30;;
74892;SDS011;63446;56.272;43.922;2023-06-22T14:30:02;11.40;;;3.67;;
74892;SDS011;63446;56.272;43.922;2023-06-22T14:32:30;7.00;;;2.85;;
74892;SDS011;63446;56.272;43.922;2023-06-22T14:34:55;8.03;;;3.13;;
74892;SDS011;63446;56.272;43.922;2023-06-22T14:37:21;5.53;;;2.83;;
74892;SDS011;63446;56.272;43.922;2023-06-22T14:39:47;8.00;;;3.10;;
74892;SDS011;63446;56.272;43.922;2023-06-22T14:42:13;5.45;;;3.08;;
74892;SDS011;63446;56.272;43.922;2023-06-22T14:44:39;7.40;;;2.83;;
74892;SDS011;63446;56.272;43.922;2023-06-22T14:47:05;7.67;;;3.30;;
74892;SDS011;63446;56.272;43.922;2023-06-22T14:49:31;5.78;;;3.10;;
74892;SDS011;63446;56.272;43.922;2023-06-22T14:51:57;5.55;;;2.88;;
74892;SDS011;63446;56.272;43.922;2023-06-22T14:54:23;8.20;;;3.50;;
74892;SDS011;63446;56.272;43.922;2023-06-22T14:56:50;6.65;;;2.78;;
74892;SDS011;63446;56.272;43.922;2023-06-22T14:59:15;6.43;;;3.40;;
74892;SDS011;63446;56.272;43.922;2023-06-22T15:01:41;5.95;;;2.95;;
74892;SDS011;63446;56.272;43.922;2023-06-22T15:04:07;9.23;;;3.10;;
74892;SDS011;63446;56.272;43.922;2023-06-22T15:06:33;7.47;;;3.17;;
74892;SDS011;63446;56.272;43.922;2023-06-22T15:08:59;7.25;;;3.22;;
74892;SDS011;63446;56.272;43.922;2023-06-22T15:11:26;9.45;;;3.03;;
74892;SDS011;63446;56.272;43.922;2023-06-22T15:13:52;9.50;;;3.20;;
74892;SDS011;63446;56.272;43.922;2023-06-22T15:16:19;6.70;;;3.03;;
74892;SDS011;63446;56.272;43.922;2023-06-22T15:18:45;7.75;;;3.38;;
74892;SDS011;63446;56.272;43.922;2023-06-22T15:21:11;7.13;;;3.60;;
74892;SDS011;63446;56.272;43.922;2023-06-22T15:23:39;11.38;;;3.45;;
74892;SDS011;63446;56.272;43.922;2023-06-22T15:26:04;7.43;;;3.53;;
74892;SDS011;63446;56.272;43.922;2023-06-22T15:28:30;6.53;;;3.10;;
74892;SDS011;63446;56.272;43.922;2023-06-22T15:30:58;8.15;;;2.90;;
74892;SDS011;63446;56.272;43.922;2023-06-22T15:33:24;5.90;;;3.05;;
74892;SDS011;63446;56.272;43.922;2023-06-22T15:35:50;6.97;;;3.20;;
74892;SDS011;63446;56.272;43.922;2023-06-22T15:38:19;7.88;;;3.15;;
74892;SDS011;63446;56.272;43.922;2023-06-22T15:40:45;9.00;;;2.97;;
74892;SDS011;63446;56.272;43.922;2023-06-22T15:43:11;6.57;;;3.03;;
74892;SDS011;63446;56.272;43.922;2023-06-22T15:45:40;8.45;;;3.17;;
74892;SDS011;63446;56.272;43.922;2023-06-22T15:48:06;6.80;;;3.40;;
74892;SDS011;63446;56.272;43.922;2023-06-22T15:50:32;8.82;;;3.15;;
74892;SDS011;63446;56.272;43.922;2023-06-22T15:52:59;8.88;;;3.22;;
74892;SDS011;63446;56.272;43.922;2023-06-22T15:55:24;5.57;;;2.83;;
74892;SDS011;63446;56.272;43.922;2023-06-22T15:57:52;5.32;;;2.83;;
74892;SDS011;63446;56.272;43.922;2023-06-22T16:00:18;8.38;;;3.38;;
74892;SDS011;63446;56.272;43.922;2023-06-22T16:02:44;10.10;;;3.35;;
74892;SDS011;63446;56.272;43.922;2023-06-22T16:05:12;5.72;;;2.80;;
74892;SDS011;63446;56.272;43.922;2023-06-22T16:07:38;6.87;;;3.00;;
74892;SDS011;63446;56.272;43.922;2023-06-22T16:10:04;5.85;;;2.55;;
74892;SDS011;63446;56.272;43.922;2023-06-22T16:12:33;7.47;;;2.67;;
74892;SDS011;63446;56.272;43.922;2023-06-22T16:15:04;5.60;;;2.85;;
74892;SDS011;63446;56.272;43.922;2023-06-22T16:17:34;8.75;;;2.90;;
74892;SDS011;63446;56.272;43.922;2023-06-22T16:20:06;7.50;;;3.53;;
74892;SDS011;63446;56.272;43.922;2023-06-22T16:22:34;6.88;;;3.38;;
74892;SDS011;63446;56.272;43.922;2023-06-22T16:25:00;10.00;;;3.95;;
74892;SDS011;63446;56.272;43.922;2023-06-22T16:27:27;8.32;;;4.07;;
74892;SDS011;63446;56.272;43.922;2023-06-22T16:29:55;7.67;;;4.33;;
74892;SDS011;63446;56.272;43.922;2023-06-22T16:32:22;8.50;;;4.00;;
74892;SDS011;63446;56.272;43.922;2023-06-22T16:34:47;17.38;;;5.50;;
74892;SDS011;63446;56.272;43.922;2023-06-22T16:37:14;13.65;;;5.50;;
74892;SDS011;63446;56.272;43.922;2023-06-22T16:39:39;11.77;;;5.00;;
74892;SDS011;63446;56.272;43.922;2023-06-22T16:42:05;10.80;;;3.97;;
74892;SDS011;63446;56.272;43.922;2023-06-22T16:44:31;11.70;;;3.80;;
74892;SDS011;63446;56.272;43.922;2023-06-22T16:46:58;8.50;;;4.07;;
74892;SDS011;63446;56.272;43.922;2023-06-22T16:49:25;10.27;;;5.53;;
74892;SDS011;63446;56.272;43.922;2023-06-22T16:51:51;6.50;;;3.47;;
74892;SDS011;63446;56.272;43.922;2023-06-22T16:54:17;11.10;;;4.23;;
74892;SDS011;63446;56.272;43.922;2023-06-22T16:56:44;9.73;;;4.05;;
74892;SDS011;63446;56.272;43.922;2023-06-22T16:59:13;8.75;;;3.25;;
74892;SDS011;63446;56.272;43.922;2023-06-22T17:01:52;6.40;;;3.42;;
74892;SDS011;63446;56.272;43.922;2023-06-22T17:04:21;6.93;;;4.50;;
74892;SDS011;63446;56.272;43.922;2023-06-22T17:06:51;8.07;;;4.13;;
74892;SDS011;63446;56.272;43.922;2023-06-22T17:09:25;7.60;;;4.03;;
74892;SDS011;63446;56.272;43.922;2023-06-22T17:11:53;9.45;;;3.90;;
74892;SDS011;63446;56.272;43.922;2023-06-22T17:14:20;11.65;;;4.10;;
74892;SDS011;63446;56.272;43.922;2023-06-22T17:16:48;6.47;;;3.55;;
74892;SDS011;63446;56.272;43.922;2023-06-22T17:19:15;9.37;;;4.03;;
74892;SDS011;63446;56.272;43.922;2023-06-22T17:21:42;8.45;;;4.15;;
74892;SDS011;63446;56.272;43.922;2023-06-22T17:24:12;9.35;;;3.78;;
74892;SDS011;63446;56.272;43.922;2023-06-22T17:26:40;7.68;;;3.60;;
74892;SDS011;63446;56.272;43.922;2023-06-22T17:29:08;9.63;;;4.17;;
74892;SDS011;63446;56.272;43.922;2023-06-22T17:31:38;7.63;;;3.73;;
74892;SDS011;63446;56.272;43.922;2023-06-22T17:34:07;7.15;;;3.72;;
74892;SDS011;63446;56.272;43.922;2023-06-22T17:36:55;8.82;;;3.53;;
74892;SDS011;63446;56.272;43.922;2023-06-22T17:39:23;7.45;;;3.17;;
74892;SDS011;63446;56.272;43.922;2023-06-22T17:41:50;8.73;;;3.67;;
74892;SDS011;63446;56.272;43.922;2023-06-22T17:44:21;9.10;;;3.40;;
74892;SDS011;63446;56.272;43.922;2023-06-22T17:46:51;7.25;;;3.00;;
74892;SDS011;63446;56.272;43.922;2023-06-22T17:49:26;7.72;;;3.38;;
74892;SDS011;63446;56.272;43.922;2023-06-22T17:51:53;7.80;;;3.53;;
74892;SDS011;63446;56.272;43.922;2023-06-22T17:54:20;9.02;;;3.38;;
74892;SDS011;63446;56.272;43.922;2023-06-22T17:56:49;8.10;;;3.60;;
74892;SDS011;63446;56.272;43.922;2023-06-22T17:59:19;8.00;;;3.58;;
74892;SDS011;63446;56.272;43.922;2023-06-22T18:01:46;8.15;;;3.60;;
74892;SDS011;63446;56.272;43.922;2023-06-22T18:04:17;8.60;;;3.97;;
74892;SDS011;63446;56.272;43.922;2023-06-22T18:06:45;8.40;;;3.90;;
74892;SDS011;63446;56.272;43.922;2023-06-22T18:09:13;11.77;;;3.63;;
74892;SDS011;63446;56.272;43.922;2023-06-22T18:11:44;8.35;;;3.75;;
74892;SDS011;63446;56.272;43.922;2023-06-22T18:14:16;7.13;;;3.65;;
74892;SDS011;63446;56.272;43.922;2023-06-22T18:16:44;8.25;;;3.78;;
74892;SDS011;63446;56.272;43.922;2023-06-22T18:19:11;9.80;;;3.63;;
74892;SDS011;63446;56.272;43.922;2023-06-22T18:21:38;9.68;;;3.35;;
74892;SDS011;63446;56.272;43.922;2023-06-22T18:24:05;12.50;;;3.90;;
74892;SDS011;63446;56.272;43.922;2023-06-22T18:26:31;7.50;;;3.67;;
74892;SDS011;63446;56.272;43.922;2023-06-22T18:28:58;8.15;;;3.33;;
74892;SDS011;63446;56.272;43.922;2023-06-22T18:31:24;9.40;;;3.97;;
74892;SDS011;63446;56.272;43.922;2023-06-22T18:33:52;10.70;;;4.32;;
74892;SDS011;63446;56.272;43.922;2023-06-22T18:36:21;8.20;;;3.92;;
74892;SDS011;63446;56.272;43.922;2023-06-22T18:38:51;8.45;;;3.60;;
74892;SDS011;63446;56.272;43.922;2023-06-22T18:41:38;9.38;;;4.47;;
74892;SDS011;63446;56.272;43.922;2023-06-22T18:44:20;9.87;;;4.00;;
74892;SDS011;63446;56.272;43.922;2023-06-22T18:46:51;8.65;;;4.05;;
74892;SDS011;63446;56.272;43.922;2023-06-22T18:49:24;9.77;;;4.05;;
74892;SDS011;63446;56.272;43.922;2023-06-22T18:54:34;13.68;;;4.10;;
74892;SDS011;63446;56.272;43.922;2023-06-22T18:57:02;7.67;;;4.23;;
74892;SDS011;63446;56.272;43.922;2023-06-22T19:10:26;9.90;;;4.27;;
74892;SDS011;63446;56.272;43.922;2023-06-22T19:13:16;8.15;;;4.38;;
74892;SDS011;63446;56.272;43.922;2023-06-22T19:16:15;10.98;;;4.13;;
74892;SDS011;63446;56.272;43.922;2023-06-22T19:18:42;8.25;;;3.92;;
74892;SDS011;63446;56.272;43.922;2023-06-22T19:21:20;13.27;;;4.10;;
74892;SDS011;63446;56.272;43.922;2023-06-22T19:23:47;13.37;;;4.47;;
74892;SDS011;63446;56.272;43.922;2023-06-22T19:26:17;10.60;;;3.63;;
74892;SDS011;63446;56.272;43.922;2023-06-22T19:28:51;9.85;;;4.15;;
74892;SDS011;63446;56.272;43.922;2023-06-22T19:31:23;10.40;;;4.22;;
74892;SDS011;63446;56.272;43.922;2023-06-22T19:34:01;9.15;;;4.30;;
74892;SDS011;63446;56.272;43.922;2023-06-22T19:36:32;8.73;;;4.13;;
74892;SDS011;63446;56.272;43.922;2023-06-22T19:38:59;10.93;;;4.05;;
74892;SDS011;63446;56.272;43.922;2023-06-22T19:41:26;9.15;;;3.92;;
74892;SDS011;63446;56.272;43.922;2023-06-22T19:43:53;9.40;;;4.10;;
74892;SDS011;63446;56.272;43.922;2023-06-22T19:46:29;11.07;;;4.53;;
74892;SDS011;63446;56.272;43.922;2023-06-22T19:48:59;10.77;;;3.60;;
74892;SDS011;63446;56.272;43.922;2023-06-22T19:51:32;7.35;;;3.67;;
74892;SDS011;63446;56.272;43.922;2023-06-22T19:54:08;7.68;;;3.53;;
74892;SDS011;63446;56.272;43.922;2023-06-22T19:56:39;8.82;;;3.65;;
74892;SDS011;63446;56.272;43.922;2023-06-22T19:59:13;7.82;;;3.70;;
74892;SDS011;63446;56.272;43.922;2023-06-22T20:01:42;7.57;;;3.63;;
74892;SDS011;63446;56.272;43.922;2023-06-22T20:04:10;9.20;;;3.30;;
74892;SDS011;63446;56.272;43.922;2023-06-22T20:06:36;8.02;;;3.72;;
74892;SDS011;63446;56.272;43.922;2023-06-22T20:09:04;7.00;;;3.60;;
74892;SDS011;63446;56.272;43.922;2023-06-22T20:11:32;7.18;;;3.28;;
74892;SDS011;63446;56.272;43.922;2023-06-22T20:13:59;8.50;;;3.80;;
74892;SDS011;63446;56.272;43.922;2023-06-22T20:16:26;9.32;;;4.20;;
74892;SDS011;63446;56.272;43.922;2023-06-22T20:21:37;8.23;;;3.63;;
74892;SDS011;63446;56.272;43.922;2023-06-22T20:24:06;11.52;;;4.07;;
74892;SDS011;63446;56.272;43.922;2023-06-22T20:26:51;10.30;;;3.47;;
74892;SDS011;63446;56.272;43.922;2023-06-22T20:29:30;9.57;;;3.92;;
74892;SDS011;63446;56.272;43.922;2023-06-22T20:34:37;8.50;;;3.85;;
74892;SDS011;63446;56.272;43.922;2023-06-22T20:37:15;8.45;;;3.80;;
74892;SDS011;63446;56.272;43.922;2023-06-22T20:39:44;8.80;;;3.83;;
74892;SDS011;63446;56.272;43.922;2023-06-22T20:42:09;8.45;;;3.97;;
74892;SDS011;63446;56.272;43.922;2023-06-22T20:44:38;9.55;;;4.18;;
74892;SDS011;63446;56.272;43.922;2023-06-22T20:47:04;8.30;;;4.03;;
74892;SDS011;63446;56.272;43.922;2023-06-22T20:49:30;10.40;;;4.43;;
74892;SDS011;63446;56.272;43.922;2023-06-22T20:51:56;6.85;;;3.45;;
74892;SDS011;63446;56.272;43.922;2023-06-22T20:54:22;8.88;;;4.00;;
74892;SDS011;63446;56.272;43.922;2023-06-22T20:56:48;7.70;;;3.73;;
74892;SDS011;63446;56.272;43.922;2023-06-22T20:59:15;8.57;;;3.95;;
74892;SDS011;63446;56.272;43.922;2023-06-22T21:01:41;8.85;;;3.92;;
74892;SDS011;63446;56.272;43.922;2023-06-22T21:04:12;7.78;;;3.97;;
74892;SDS011;63446;56.272;43.922;2023-06-22T21:06:38;10.52;;;4.03;;
74892;SDS011;63446;56.272;43.922;2023-06-22T21:09:04;9.23;;;4.10;;
74892;SDS011;63446;56.272;43.922;2023-06-22T21:11:33;8.25;;;4.03;;
74892;SDS011;63446;56.272;43.922;2023-06-22T21:13:59;8.83;;;4.13;;
74892;SDS011;63446;56.272;43.922;2023-06-22T21:16:25;9.50;;;4.10;;
74892;SDS011;63446;56.272;43.922;2023-06-22T21:18:51;9.00;;;3.95;;
74892;SDS011;63446;56.272;43.922;2023-06-22T21:21:17;8.50;;;3.88;;
74892;SDS011;63446;56.272;43.922;2023-06-22T21:23:43;8.80;;;3.80;;